sensor_id;sensor_type;location;lat;lon;timestamp;P1;durP1;ratioP1;P2;durP2;ratioP2
37267;SDS011;23154;52.542;13.362;2023-07-08T00:01:40;15.90;;;5.00;;
37267;SDS011;23154;52.542;13.362;2023-07-08T00:04:06;16.08;;;5.05;;
37267;SDS011;23154;52.542;13.362;2023-07-08T00:06:32;16.77;;;5.28;;
37267;SDS011;23154;52.542;13.362;2023-07-08T00:08:59;15.88;;;5.15;;
37267;SDS011;23154;52.542;13.362;2023-07-08T00:11:25;14.63;;;4.70;;
37267;SDS011;23154;52.542;13.362;2023-07-08T00:13:51;17.70;;;4.82;;
37267;SDS011;23154;52.542;13.362;2023-07-08T00:16:17;17.45;;;4.93;;
37267;SDS011;23154;52.542;13.362;2023-07-08T00:18:44;19.45;;;5.18;;
37267;SDS011;23154;52.542;13.362;2023-07-08T00:21:11;15.32;;;4.75;;
37267;SDS011;23154;52.542;13.362;2023-07-08T00:23:40;17.13;;;5.20;;
37267;SDS011;23154;52.542;13.362;2023-07-08T00:26:13;17.48;;;5.22;;
37267;SDS011;23154;52.542;13.362;2023-07-08T00:28:41;16.48;;;5.35;;
37267;SDS011;23154;52.542;13.362;2023-07-08T00:31:10;18.65;;;5.45;;
37267;SDS011;23154;52.542;13.362;2023-07-08T00:33:36;14.47;;;4.83;;
37267;SDS011;23154;52.542;13.362;2023-07-08T00:36:05;18.23;;;5.88;;
37267;SDS011;23154;52.542;13.362;2023-07-08T00:38:37;14.95;;;4.78;;
37267;SDS011;23154;52.542;13.362;2023-07-08T00:44:05;14.77;;;4.82;;
37267;SDS011;23154;52.542;13.362;2023-07-08T00:49:23;16.33;;;4.82;;
37267;SDS011;23154;52.542;13.362;2023-07-08T00:51:49;15.73;;;4.68;;
37267;SDS011;23154;52.542;13.362;2023-07-08T00:54:16;15.60;;;5.38;;
37267;SDS011;23154;52.542;13.362;2023-07-08T00:59:09;15.65;;;4.88;;
37267;SDS011;23154;52.542;13.362;2023-07-08T01:01:36;17.35;;;4.75;;
37267;SDS011;23154;52.542;13.362;2023-07-08T01:04:06;15.32;;;4.97;;
37267;SDS011;23154;52.542;13.362;2023-07-08T01:06:33;13.70;;;4.10;;
37267;SDS011;23154;52.542;13.362;2023-07-08T01:09:05;14.25;;;4.32;;
37267;SDS011;23154;52.542;13.362;2023-07-08T01:11:32;13.07;;;4.22;;
37267;SDS011;23154;52.542;13.362;2023-07-08T01:13:58;12.43;;;4.47;;
37267;SDS011;23154;52.542;13.362;2023-07-08T01:16:25;12.40;;;4.57;;
37267;SDS011;23154;52.542;13.362;2023-07-08T01:18:52;18.88;;;4.97;;
37267;SDS011;23154;52.542;13.362;2023-07-08T01:21:34;19.25;;;5.45;;
37267;SDS011;23154;52.542;13.362;2023-07-08T01:24:02;17.92;;;4.60;;
37267;SDS011;23154;52.542;13.362;2023-07-08T01:26:29;14.32;;;4.30;;
37267;SDS011;23154;52.542;13.362;2023-07-08T01:28:55;15.05;;;5.03;;
37267;SDS011;23154;52.542;13.362;2023-07-08T01:31:22;18.67;;;4.43;;
37267;SDS011;23154;52.542;13.362;2023-07-08T01:33:48;15.82;;;4.30;;
37267;SDS011;23154;52.542;13.362;2023-07-08T01:36:16;14.55;;;4.43;;
37267;SDS011;23154;52.542;13.362;2023-07-08T01:38:42;15.13;;;4.50;;
37267;SDS011;23154;52.542;13.362;2023-07-08T01:41:11;13.57;;;4.25;;
37267;SDS011;23154;52.542;13.362;2023-07-08T01:43:37;12.98;;;4.40;;
37267;SDS011;23154;52.542;13.362;2023-07-08T01:46:03;13.93;;;4.28;;
37267;SDS011;23154;52.542;13.362;2023-07-08T01:48:31;18.98;;;4.60;;
37267;SDS011;23154;52.542;13.362;2023-07-08T01:51:00;16.08;;;4.28;;
37267;SDS011;23154;52.542;13.362;2023-07-08T01:53:28;14.20;;;4.07;;
37267;SDS011;23154;52.542;13.362;2023-07-08T01:55:55;14.43;;;4.20;;
37267;SDS011;23154;52.542;13.362;2023-07-08T01:58:21;12.90;;;4.22;;
37267;SDS011;23154;52.542;13.362;2023-07-08T02:00:47;13.55;;;4.13;;
37267;SDS011;23154;52.542;13.362;2023-07-08T02:03:14;13.15;;;4.18;;
37267;SDS011;23154;52.542;13.362;2023-07-08T02:05:40;14.40;;;4.18;;
37267;SDS011;23154;52.542;13.362;2023-07-08T02:08:06;11.13;;;3.90;;
37267;SDS011;23154;52.542;13.362;2023-07-08T02:10:32;12.10;;;3.78;;
37267;SDS011;23154;52.542;13.362;2023-07-08T02:12:58;10.27;;;3.70;;
37267;SDS011;23154;52.542;13.362;2023-07-08T02:15:25;12.23;;;3.97;;
37267;SDS011;23154;52.542;13.362;2023-07-08T02:17:51;17.55;;;3.95;;
37267;SDS011;23154;52.542;13.362;2023-07-08T02:20:17;14.07;;;4.00;;
37267;SDS011;23154;52.542;13.362;2023-07-08T02:22:43;12.02;;;3.67;;
37267;SDS011;23154;52.542;13.362;2023-07-08T02:25:09;14.93;;;4.65;;
37267;SDS011;23154;52.542;13.362;2023-07-08T02:27:36;11.15;;;3.65;;
37267;SDS011;23154;52.542;13.362;2023-07-08T02:30:02;14.05;;;3.92;;
37267;SDS011;23154;52.542;13.362;2023-07-08T02:32:29;16.17;;;4.75;;
37267;SDS011;23154;52.542;13.362;2023-07-08T02:34:55;13.35;;;4.65;;
37267;SDS011;23154;52.542;13.362;2023-07-08T02:37:21;12.48;;;4.07;;
37267;SDS011;23154;52.542;13.362;2023-07-08T02:39:47;14.00;;;4.22;;
37267;SDS011;23154;52.542;13.362;2023-07-08T02:42:13;14.60;;;4.25;;
37267;SDS011;23154;52.542;13.362;2023-07-08T02:44:39;13.32;;;4.20;;
37267;SDS011;23154;52.542;13.362;2023-07-08T02:47:05;13.48;;;3.95;;
37267;SDS011;23154;52.542;13.362;2023-07-08T02:49:31;12.23;;;4.00;;
37267;SDS011;23154;52.542;13.362;2023-07-08T02:51:57;16.15;;;4.45;;
37267;SDS011;23154;52.542;13.362;2023-07-08T02:54:23;12.80;;;4.10;;
37267;SDS011;23154;52.542;13.362;2023-07-08T02:56:49;11.25;;;3.67;;
37267;SDS011;23154;52.542;13.362;2023-07-08T02:59:15;15.65;;;4.30;;
37267;SDS011;23154;52.542;13.362;2023-07-08T03:01:41;14.05;;;3.97;;
37267;SDS011;23154;52.542;13.362;2023-07-08T03:04:10;22.77;;;4.00;;
37267;SDS011;23154;52.542;13.362;2023-07-08T03:06:43;14.52;;;4.40;;
37267;SDS011;23154;52.542;13.362;2023-07-08T03:09:09;14.32;;;4.63;;
37267;SDS011;23154;52.542;13.362;2023-07-08T03:11:37;15.02;;;4.63;;
37267;SDS011;23154;52.542;13.362;2023-07-08T03:14:03;13.60;;;4.38;;
37267;SDS011;23154;52.542;13.362;2023-07-08T03:16:30;14.30;;;4.30;;
37267;SDS011;23154;52.542;13.362;2023-07-08T03:18:56;12.50;;;4.20;;
37267;SDS011;23154;52.542;13.362;2023-07-08T03:21:22;12.55;;;3.88;;
37267;SDS011;23154;52.542;13.362;2023-07-08T03:23:48;12.57;;;4.22;;
37267;SDS011;23154;52.542;13.362;2023-07-08T03:26:16;15.38;;;4.30;;
37267;SDS011;23154;52.542;13.362;2023-07-08T03:28:43;13.48;;;4.47;;
37267;SDS011;23154;52.542;13.362;2023-07-08T03:31:10;12.60;;;4.07;;
37267;SDS011;23154;52.542;13.362;2023-07-08T03:33:36;14.57;;;4.47;;
37267;SDS011;23154;52.542;13.362;2023-07-08T03:36:03;15.25;;;4.80;;
37267;SDS011;23154;52.542;13.362;2023-07-08T03:38:29;13.93;;;4.63;;
37267;SDS011;23154;52.542;13.362;2023-07-08T03:40:55;13.68;;;4.70;;
37267;SDS011;23154;52.542;13.362;2023-07-08T03:43:21;16.80;;;5.05;;
37267;SDS011;23154;52.542;13.362;2023-07-08T03:45:47;16.23;;;5.60;;
37267;SDS011;23154;52.542;13.362;2023-07-08T03:48:13;16.52;;;5.30;;
37267;SDS011;23154;52.542;13.362;2023-07-08T03:50:39;14.75;;;4.75;;
37267;SDS011;23154;52.542;13.362;2023-07-08T03:53:05;16.35;;;4.95;;
37267;SDS011;23154;52.542;13.362;2023-07-08T03:55:31;13.63;;;4.95;;
37267;SDS011;23154;52.542;13.362;2023-07-08T03:57:57;14.65;;;4.90;;
37267;SDS011;23154;52.542;13.362;2023-07-08T04:00:23;14.00;;;5.25;;
37267;SDS011;23154;52.542;13.362;2023-07-08T04:02:49;13.93;;;4.50;;
37267;SDS011;23154;52.542;13.362;2023-07-08T04:05:16;15.20;;;4.32;;
37267;SDS011;23154;52.542;13.362;2023-07-08T04:07:42;13.02;;;4.70;;
37267;SDS011;23154;52.542;13.362;2023-07-08T04:10:09;12.80;;;4.72;;
37267;SDS011;23154;52.542;13.362;2023-07-08T04:12:35;12.48;;;4.32;;
37267;SDS011;23154;52.542;13.362;2023-07-08T04:15:02;12.98;;;4.32;;
37267;SDS011;23154;52.542;13.362;2023-07-08T04:17:28;12.82;;;4.22;;
37267;SDS011;23154;52.542;13.362;2023-07-08T04:19:54;14.75;;;4.10;;
37267;SDS011;23154;52.542;13.362;2023-07-08T04:22:22;15.05;;;4.38;;
37267;SDS011;23154;52.542;13.362;2023-07-08T04:24:49;14.68;;;4.75;;
37267;SDS011;23154;52.542;13.362;2023-07-08T04:27:16;17.13;;;4.60;;
37267;SDS011;23154;52.542;13.362;2023-07-08T04:29:43;14.93;;;4.93;;
37267;SDS011;23154;52.542;13.362;2023-07-08T04:32:09;13.32;;;4.38;;
37267;SDS011;23154;52.542;13.362;2023-07-08T04:34:35;15.75;;;4.68;;
37267;SDS011;23154;52.542;13.362;2023-07-08T04:37:01;13.88;;;4.10;;
37267;SDS011;23154;52.542;13.362;2023-07-08T04:39:29;13.75;;;4.22;;
37267;SDS011;23154;52.542;13.362;2023-07-08T04:41:55;16.70;;;4.70;;
37267;SDS011;23154;52.542;13.362;2023-07-08T04:44:21;12.70;;;4.13;;
37267;SDS011;23154;52.542;13.362;2023-07-08T04:46:50;10.25;;;3.70;;
37267;SDS011;23154;52.542;13.362;2023-07-08T04:49:18;15.32;;;3.97;;
37267;SDS011;23154;52.542;13.362;2023-07-08T04:51:44;13.57;;;4.15;;
37267;SDS011;23154;52.542;13.362;2023-07-08T04:54:10;14.43;;;3.85;;
37267;SDS011;23154;52.542;13.362;2023-07-08T04:56:37;12.85;;;4.05;;
37267;SDS011;23154;52.542;13.362;2023-07-08T04:59:04;13.65;;;4.30;;
37267;SDS011;23154;52.542;13.362;2023-07-08T05:01:30;13.50;;;3.83;;
37267;SDS011;23154;52.542;13.362;2023-07-08T05:03:56;11.70;;;3.88;;
37267;SDS011;23154;52.542;13.362;2023-07-08T05:06:22;12.25;;;3.90;;
37267;SDS011;23154;52.542;13.362;2023-07-08T05:08:48;12.00;;;3.72;;
37267;SDS011;23154;52.542;13.362;2023-07-08T05:11:14;12.73;;;3.58;;
37267;SDS011;23154;52.542;13.362;2023-07-08T05:13:40;13.25;;;3.85;;
37267;SDS011;23154;52.542;13.362;2023-07-08T05:16:06;11.57;;;3.70;;
37267;SDS011;23154;52.542;13.362;2023-07-08T05:18:32;15.00;;;4.13;;
37267;SDS011;23154;52.542;13.362;2023-07-08T05:20:58;11.52;;;3.80;;
37267;SDS011;23154;52.542;13.362;2023-07-08T05:23:24;10.93;;;3.30;;
37267;SDS011;23154;52.542;13.362;2023-07-08T05:25:50;13.25;;;3.75;;
37267;SDS011;23154;52.542;13.362;2023-07-08T05:28:16;13.02;;;3.83;;
37267;SDS011;23154;52.542;13.362;2023-07-08T05:30:42;13.45;;;3.88;;
37267;SDS011;23154;52.542;13.362;2023-07-08T05:33:08;11.10;;;3.53;;
37267;SDS011;23154;52.542;13.362;2023-07-08T05:35:34;12.07;;;3.53;;
37267;SDS011;23154;52.542;13.362;2023-07-08T05:38:01;9.65;;;3.33;;
37267;SDS011;23154;52.542;13.362;2023-07-08T05:40:28;13.13;;;3.45;;
37267;SDS011;23154;52.542;13.362;2023-07-08T05:42:54;13.25;;;3.72;;
37267;SDS011;23154;52.542;13.362;2023-07-08T05:45:20;11.30;;;3.85;;
37267;SDS011;23154;52.542;13.362;2023-07-08T05:47:46;12.02;;;3.38;;
37267;SDS011;23154;52.542;13.362;2023-07-08T05:50:12;10.98;;;3.53;;
37267;SDS011;23154;52.542;13.362;2023-07-08T05:52:39;10.40;;;3.40;;
37267;SDS011;23154;52.542;13.362;2023-07-08T05:55:05;10.95;;;3.47;;
37267;SDS011;23154;52.542;13.362;2023-07-08T05:57:31;8.73;;;2.95;;
37267;SDS011;23154;52.542;13.362;2023-07-08T05:59:57;13.77;;;3.97;;
37267;SDS011;23154;52.542;13.362;2023-07-08T06:02:24;13.20;;;4.03;;
37267;SDS011;23154;52.542;13.362;2023-07-08T06:04:51;13.07;;;3.65;;
37267;SDS011;23154;52.542;13.362;2023-07-08T06:07:17;11.20;;;3.33;;
37267;SDS011;23154;52.542;13.362;2023-07-08T06:09:43;14.45;;;4.20;;
37267;SDS011;23154;52.542;13.362;2023-07-08T06:12:10;12.13;;;3.90;;
37267;SDS011;23154;52.542;13.362;2023-07-08T06:14:36;15.65;;;3.70;;
37267;SDS011;23154;52.542;13.362;2023-07-08T06:17:03;13.88;;;4.13;;
37267;SDS011;23154;52.542;13.362;2023-07-08T06:19:30;9.10;;;3.38;;
37267;SDS011;23154;52.542;13.362;2023-07-08T06:21:56;14.77;;;5.30;;
37267;SDS011;23154;52.542;13.362;2023-07-08T06:24:22;32.17;;;14.93;;
37267;SDS011;23154;52.542;13.362;2023-07-08T06:26:48;18.25;;;4.18;;
37267;SDS011;23154;52.542;13.362;2023-07-08T06:29:14;13.27;;;3.55;;
37267;SDS011;23154;52.542;13.362;2023-07-08T06:31:41;11.05;;;3.58;;
37267;SDS011;23154;52.542;13.362;2023-07-08T06:34:07;14.50;;;4.35;;
37267;SDS011;23154;52.542;13.362;2023-07-08T06:36:33;18.88;;;7.60;;
37267;SDS011;23154;52.542;13.362;2023-07-08T06:38:59;22.45;;;8.48;;
37267;SDS011;23154;52.542;13.362;2023-07-08T06:41:25;13.48;;;3.90;;
37267;SDS011;23154;52.542;13.362;2023-07-08T06:43:51;13.63;;;4.18;;
37267;SDS011;23154;52.542;13.362;2023-07-08T06:46:17;15.25;;;3.92;;
37267;SDS011;23154;52.542;13.362;2023-07-08T06:48:44;15.05;;;3.95;;
37267;SDS011;23154;52.542;13.362;2023-07-08T06:51:10;10.35;;;3.70;;
37267;SDS011;23154;52.542;13.362;2023-07-08T06:53:36;12.63;;;4.00;;
37267;SDS011;23154;52.542;13.362;2023-07-08T06:56:02;12.52;;;3.97;;
37267;SDS011;23154;52.542;13.362;2023-07-08T06:58:28;14.88;;;3.55;;
37267;SDS011;23154;52.542;13.362;2023-07-08T07:00:54;9.57;;;3.45;;
37267;SDS011;23154;52.542;13.362;2023-07-08T07:03:20;12.90;;;3.83;;
37267;SDS011;23154;52.542;13.362;2023-07-08T07:05:47;14.27;;;4.05;;
37267;SDS011;23154;52.542;13.362;2023-07-08T07:08:13;10.63;;;3.60;;
37267;SDS011;23154;52.542;13.362;2023-07-08T07:10:39;11.30;;;3.53;;
37267;SDS011;23154;52.542;13.362;2023-07-08T07:13:05;12.23;;;3.80;;
37267;SDS011;23154;52.542;13.362;2023-07-08T07:15:31;16.05;;;3.90;;
37267;SDS011;23154;52.542;13.362;2023-07-08T07:17:57;11.65;;;3.70;;
37267;SDS011;23154;52.542;13.362;2023-07-08T07:20:24;10.15;;;3.60;;
37267;SDS011;23154;52.542;13.362;2023-07-08T07:22:50;11.85;;;3.80;;
37267;SDS011;23154;52.542;13.362;2023-07-08T07:25:16;12.13;;;4.43;;
37267;SDS011;23154;52.542;13.362;2023-07-08T07:27:42;12.98;;;3.67;;
37267;SDS011;23154;52.542;13.362;2023-07-08T07:30:09;11.60;;;3.78;;
37267;SDS011;23154;52.542;13.362;2023-07-08T07:32:43;13.73;;;3.75;;
37267;SDS011;23154;52.542;13.362;2023-07-08T07:35:12;12.60;;;4.35;;
37267;SDS011;23154;52.542;13.362;2023-07-08T07:37:40;12.93;;;4.10;;
37267;SDS011;23154;52.542;13.362;2023-07-08T07:40:09;12.10;;;3.83;;
37267;SDS011;23154;52.542;13.362;2023-07-08T07:42:40;14.93;;;4.18;;
37267;SDS011;23154;52.542;13.362;2023-07-08T07:45:07;12.90;;;4.13;;
37267;SDS011;23154;52.542;13.362;2023-07-08T07:47:33;11.57;;;4.00;;
37267;SDS011;23154;52.542;13.362;2023-07-08T07:49:59;13.05;;;4.30;;
37267;SDS011;23154;52.542;13.362;2023-07-08T07:52:25;13.23;;;4.40;;
37267;SDS011;23154;52.542;13.362;2023-07-08T07:54:51;12.02;;;4.25;;
37267;SDS011;23154;52.542;13.362;2023-07-08T07:57:19;12.32;;;4.38;;
37267;SDS011;23154;52.542;13.362;2023-07-08T07:59:45;12.50;;;4.45;;
37267;SDS011;23154;52.542;13.362;2023-07-08T08:02:11;9.98;;;4.05;;
37267;SDS011;23154;52.542;13.362;2023-07-08T08:04:37;12.05;;;4.40;;
37267;SDS011;23154;52.542;13.362;2023-07-08T08:07:03;14.15;;;3.90;;
37267;SDS011;23154;52.542;13.362;2023-07-08T08:09:29;10.27;;;3.70;;
37267;SDS011;23154;52.542;13.362;2023-07-08T08:11:55;10.95;;;4.15;;
37267;SDS011;23154;52.542;13.362;2023-07-08T08:14:21;11.88;;;4.53;;
37267;SDS011;23154;52.542;13.362;2023-07-08T08:16:47;14.30;;;5.20;;
37267;SDS011;23154;52.542;13.362;2023-07-08T08:19:13;12.35;;;4.70;;
37267;SDS011;23154;52.542;13.362;2023-07-08T08:21:39;10.13;;;4.30;;
37267;SDS011;23154;52.542;13.362;2023-07-08T08:24:05;12.30;;;4.35;;
37267;SDS011;23154;52.542;13.362;2023-07-08T08:26:31;14.38;;;4.95;;
37267;SDS011;23154;52.542;13.362;2023-07-08T08:28:57;13.15;;;4.85;;
37267;SDS011;23154;52.542;13.362;2023-07-08T08:31:24;15.18;;;5.28;;
37267;SDS011;23154;52.542;13.362;2023-07-08T08:33:53;12.93;;;5.18;;
37267;SDS011;23154;52.542;13.362;2023-07-08T08:36:19;10.60;;;3.90;;
37267;SDS011;23154;52.542;13.362;2023-07-08T08:38:46;15.10;;;3.70;;
37267;SDS011;23154;52.542;13.362;2023-07-08T08:41:12;12.75;;;4.10;;
37267;SDS011;23154;52.542;13.362;2023-07-08T08:43:39;9.00;;;3.22;;
37267;SDS011;23154;52.542;13.362;2023-07-08T08:46:23;9.82;;;3.60;;
37267;SDS011;23154;52.542;13.362;2023-07-08T08:51:36;10.63;;;4.18;;
37267;SDS011;23154;52.542;13.362;2023-07-08T08:54:02;9.75;;;3.90;;
37267;SDS011;23154;52.542;13.362;2023-07-08T08:56:29;11.32;;;3.53;;
37267;SDS011;23154;52.542;13.362;2023-07-08T08:58:58;10.77;;;3.67;;
37267;SDS011;23154;52.542;13.362;2023-07-08T09:01:27;12.15;;;3.67;;
37267;SDS011;23154;52.542;13.362;2023-07-08T09:04:13;8.23;;;3.40;;
37267;SDS011;23154;52.542;13.362;2023-07-08T09:06:42;12.32;;;4.10;;
37267;SDS011;23154;52.542;13.362;2023-07-08T09:12:04;10.02;;;3.15;;
37267;SDS011;23154;52.542;13.362;2023-07-08T09:14:33;9.32;;;3.45;;
37267;SDS011;23154;52.542;13.362;2023-07-08T09:19:40;10.38;;;3.80;;
37267;SDS011;23154;52.542;13.362;2023-07-08T09:24:56;9.68;;;3.63;;
37267;SDS011;23154;52.542;13.362;2023-07-08T09:27:24;10.52;;;3.33;;
37267;SDS011;23154;52.542;13.362;2023-07-08T09:29:50;12.82;;;4.60;;
37267;SDS011;23154;52.542;13.362;2023-07-08T09:32:17;13.63;;;4.68;;
37267;SDS011;23154;52.542;13.362;2023-07-08T09:34:45;10.82;;;5.70;;
37267;SDS011;23154;52.542;13.362;2023-07-08T09:37:22;11.38;;;6.20;;
37267;SDS011;23154;52.542;13.362;2023-07-08T09:39:48;12.88;;;6.53;;
37267;SDS011;23154;52.542;13.362;2023-07-08T09:42:14;13.60;;;7.57;;
37267;SDS011;23154;52.542;13.362;2023-07-08T09:44:42;13.75;;;8.98;;
37267;SDS011;23154;52.542;13.362;2023-07-08T09:47:25;14.63;;;9.52;;
37267;SDS011;23154;52.542;13.362;2023-07-08T09:49:56;15.40;;;9.63;;
37267;SDS011;23154;52.542;13.362;2023-07-08T09:52:23;15.30;;;7.30;;
37267;SDS011;23154;52.542;13.362;2023-07-08T09:54:49;15.70;;;7.65;;
37267;SDS011;23154;52.542;13.362;2023-07-08T09:59:52;15.85;;;5.95;;
37267;SDS011;23154;52.542;13.362;2023-07-08T10:05:20;13.25;;;6.90;;
37267;SDS011;23154;52.542;13.362;2023-07-08T10:07:47;9.50;;;4.30;;
37267;SDS011;23154;52.542;13.362;2023-07-08T10:10:18;9.18;;;4.43;;
37267;SDS011;23154;52.542;13.362;2023-07-08T10:12:52;12.30;;;4.68;;
37267;SDS011;23154;52.542;13.362;2023-07-08T10:15:22;13.38;;;5.32;;
37267;SDS011;23154;52.542;13.362;2023-07-08T10:17:50;11.90;;;5.50;;
37267;SDS011;23154;52.542;13.362;2023-07-08T10:20:16;13.35;;;5.60;;
37267;SDS011;23154;52.542;13.362;2023-07-08T10:22:47;13.02;;;5.45;;
37267;SDS011;23154;52.542;13.362;2023-07-08T10:25:29;14.18;;;6.22;;
37267;SDS011;23154;52.542;13.362;2023-07-08T10:30:50;9.20;;;4.93;;
37267;SDS011;23154;52.542;13.362;2023-07-08T10:33:29;11.73;;;5.63;;
37267;SDS011;23154;52.542;13.362;2023-07-08T10:36:07;11.03;;;5.57;;
37267;SDS011;23154;52.542;13.362;2023-07-08T10:38:43;11.93;;;5.20;;
37267;SDS011;23154;52.542;13.362;2023-07-08T10:41:14;10.73;;;5.43;;
37267;SDS011;23154;52.542;13.362;2023-07-08T10:49:07;15.10;;;6.47;;
37267;SDS011;23154;52.542;13.362;2023-07-08T10:56:34;14.07;;;6.07;;
37267;SDS011;23154;52.542;13.362;2023-07-08T11:02:32;10.45;;;2.80;;
37267;SDS011;23154;52.542;13.362;2023-07-08T11:07:16;9.77;;;2.60;;
37267;SDS011;23154;52.542;13.362;2023-07-08T11:20:16;9.38;;;2.80;;
37267;SDS011;23154;52.542;13.362;2023-07-08T11:22:49;7.65;;;2.63;;
37267;SDS011;23154;52.542;13.362;2023-07-08T11:25:17;9.90;;;2.88;;
37267;SDS011;23154;52.542;13.362;2023-07-08T11:27:44;19.05;;;2.97;;
37267;SDS011;23154;52.542;13.362;2023-07-08T11:32:37;10.23;;;2.97;;
37267;SDS011;23154;52.542;13.362;2023-07-08T11:35:05;11.55;;;3.08;;
37267;SDS011;23154;52.542;13.362;2023-07-08T11:37:32;11.68;;;3.20;;
37267;SDS011;23154;52.542;13.362;2023-07-08T11:39:59;10.75;;;2.92;;
37267;SDS011;23154;52.542;13.362;2023-07-08T11:42:35;8.75;;;2.60;;
37267;SDS011;23154;52.542;13.362;2023-07-08T11:45:02;8.98;;;3.20;;
37267;SDS011;23154;52.542;13.362;2023-07-08T11:49:59;7.95;;;2.55;;
37267;SDS011;23154;52.542;13.362;2023-07-08T11:52:26;7.45;;;2.63;;
37267;SDS011;23154;52.542;13.362;2023-07-08T11:55:14;11.02;;;2.88;;
37267;SDS011;23154;52.542;13.362;2023-07-08T11:57:44;10.85;;;3.40;;
37267;SDS011;23154;52.542;13.362;2023-07-08T12:00:14;8.32;;;2.70;;
37267;SDS011;23154;52.542;13.362;2023-07-08T12:02:47;10.35;;;2.90;;
37267;SDS011;23154;52.542;13.362;2023-07-08T12:05:13;9.02;;;2.97;;
37267;SDS011;23154;52.542;13.362;2023-07-08T12:07:47;11.90;;;2.45;;
37267;SDS011;23154;52.542;13.362;2023-07-08T12:12:41;7.60;;;2.58;;
37267;SDS011;23154;52.542;13.362;2023-07-08T12:17:37;9.50;;;3.13;;
37267;SDS011;23154;52.542;13.362;2023-07-08T12:20:03;11.55;;;3.10;;
37267;SDS011;23154;52.542;13.362;2023-07-08T12:22:33;12.77;;;2.63;;
37267;SDS011;23154;52.542;13.362;2023-07-08T12:24:59;8.95;;;2.72;;
37267;SDS011;23154;52.542;13.362;2023-07-08T12:27:30;7.97;;;2.50;;
37267;SDS011;23154;52.542;13.362;2023-07-08T12:29:56;8.25;;;2.55;;
37267;SDS011;23154;52.542;13.362;2023-07-08T12:32:22;10.60;;;3.08;;
37267;SDS011;23154;52.542;13.362;2023-07-08T12:34:50;12.68;;;3.03;;
37267;SDS011;23154;52.542;13.362;2023-07-08T12:37:17;8.48;;;2.60;;
37267;SDS011;23154;52.542;13.362;2023-07-08T12:39:43;9.90;;;2.90;;
37267;SDS011;23154;52.542;13.362;2023-07-08T12:42:10;8.85;;;2.67;;
37267;SDS011;23154;52.542;13.362;2023-07-08T12:44:38;11.77;;;3.13;;
37267;SDS011;23154;52.542;13.362;2023-07-08T12:47:07;11.15;;;3.08;;
37267;SDS011;23154;52.542;13.362;2023-07-08T12:49:34;12.70;;;3.05;;
37267;SDS011;23154;52.542;13.362;2023-07-08T12:52:00;9.38;;;2.92;;
37267;SDS011;23154;52.542;13.362;2023-07-08T12:54:27;10.73;;;2.78;;
37267;SDS011;23154;52.542;13.362;2023-07-08T12:56:53;9.35;;;2.67;;
37267;SDS011;23154;52.542;13.362;2023-07-08T12:59:21;9.50;;;3.10;;
37267;SDS011;23154;52.542;13.362;2023-07-08T13:01:48;9.27;;;3.08;;
37267;SDS011;23154;52.542;13.362;2023-07-08T13:04:17;11.30;;;3.10;;
37267;SDS011;23154;52.542;13.362;2023-07-08T13:06:43;8.38;;;2.78;;
37267;SDS011;23154;52.542;13.362;2023-07-08T13:11:55;10.40;;;3.15;;
37267;SDS011;23154;52.542;13.362;2023-07-08T13:14:22;9.05;;;2.83;;
37267;SDS011;23154;52.542;13.362;2023-07-08T13:16:49;8.48;;;2.80;;
37267;SDS011;23154;52.542;13.362;2023-07-08T13:19:16;8.23;;;2.63;;
37267;SDS011;23154;52.542;13.362;2023-07-08T13:21:43;8.35;;;2.67;;
37267;SDS011;23154;52.542;13.362;2023-07-08T13:24:10;12.20;;;3.95;;
37267;SDS011;23154;52.542;13.362;2023-07-08T13:26:36;11.13;;;3.42;;
37267;SDS011;23154;52.542;13.362;2023-07-08T13:29:15;10.18;;;2.92;;
37267;SDS011;23154;52.542;13.362;2023-07-08T13:31:45;10.50;;;3.37;;
37267;SDS011;23154;52.542;13.362;2023-07-08T13:34:16;8.30;;;3.00;;
37267;SDS011;23154;52.542;13.362;2023-07-08T13:36:43;9.90;;;3.28;;
37267;SDS011;23154;52.542;13.362;2023-07-08T13:39:13;11.93;;;3.05;;
37267;SDS011;23154;52.542;13.362;2023-07-08T13:41:49;8.48;;;2.97;;
37267;SDS011;23154;52.542;13.362;2023-07-08T13:44:16;11.90;;;3.22;;
37267;SDS011;23154;52.542;13.362;2023-07-08T13:49:20;10.73;;;3.00;;
37267;SDS011;23154;52.542;13.362;2023-07-08T13:51:50;10.43;;;3.38;;
37267;SDS011;23154;52.542;13.362;2023-07-08T13:54:21;12.32;;;3.42;;
37267;SDS011;23154;52.542;13.362;2023-07-08T13:56:51;13.02;;;3.10;;
37267;SDS011;23154;52.542;13.362;2023-07-08T13:59:24;10.57;;;3.30;;
37267;SDS011;23154;52.542;13.362;2023-07-08T14:01:55;12.40;;;3.40;;
37267;SDS011;23154;52.542;13.362;2023-07-08T14:04:30;10.80;;;3.35;;
37267;SDS011;23154;52.542;13.362;2023-07-08T14:06:57;11.25;;;3.40;;
37267;SDS011;23154;52.542;13.362;2023-07-08T14:09:23;10.63;;;3.58;;
37267;SDS011;23154;52.542;13.362;2023-07-08T14:11:50;10.65;;;3.00;;
37267;SDS011;23154;52.542;13.362;2023-07-08T14:14:17;13.32;;;3.10;;
37267;SDS011;23154;52.542;13.362;2023-07-08T14:16:45;8.15;;;2.67;;
37267;SDS011;23154;52.542;13.362;2023-07-08T14:19:13;17.23;;;3.58;;
37267;SDS011;23154;52.542;13.362;2023-07-08T14:21:40;10.15;;;2.90;;
37267;SDS011;23154;52.542;13.362;2023-07-08T14:24:13;12.23;;;3.40;;
37267;SDS011;23154;52.542;13.362;2023-07-08T14:26:47;7.70;;;2.60;;
37267;SDS011;23154;52.542;13.362;2023-07-08T14:29:13;9.75;;;3.10;;
37267;SDS011;23154;52.542;13.362;2023-07-08T14:31:40;10.00;;;3.13;;
37267;SDS011;23154;52.542;13.362;2023-07-08T14:34:12;9.65;;;3.30;;
37267;SDS011;23154;52.542;13.362;2023-07-08T14:36:38;16.77;;;10.88;;
37267;SDS011;23154;52.542;13.362;2023-07-08T14:39:09;12.43;;;3.28;;
37267;SDS011;23154;52.542;13.362;2023-07-08T14:41:40;10.82;;;3.55;;
37267;SDS011;23154;52.542;13.362;2023-07-08T14:44:41;9.57;;;2.97;;
37267;SDS011;23154;52.542;13.362;2023-07-08T14:46:59;11.55;;;6.28;;
37267;SDS011;23154;52.542;13.362;2023-07-08T14:49:26;21.90;;;14.95;;
37267;SDS011;23154;52.542;13.362;2023-07-08T14:51:53;19.60;;;14.63;;
37267;SDS011;23154;52.542;13.362;2023-07-08T14:54:20;18.25;;;14.23;;
37267;SDS011;23154;52.542;13.362;2023-07-08T14:56:47;17.30;;;13.55;;
37267;SDS011;23154;52.542;13.362;2023-07-08T14:59:17;17.35;;;14.10;;
37267;SDS011;23154;52.542;13.362;2023-07-08T15:04:11;18.80;;;13.77;;
37267;SDS011;23154;52.542;13.362;2023-07-08T15:06:37;18.73;;;13.85;;
37267;SDS011;23154;52.542;13.362;2023-07-08T15:09:03;18.35;;;13.23;;
37267;SDS011;23154;52.542;13.362;2023-07-08T15:11:30;16.75;;;13.35;;
37267;SDS011;23154;52.542;13.362;2023-07-08T15:13:56;17.95;;;13.73;;
37267;SDS011;23154;52.542;13.362;2023-07-08T15:16:22;18.25;;;14.25;;
37267;SDS011;23154;52.542;13.362;2023-07-08T15:18:48;19.73;;;17.63;;
37267;SDS011;23154;52.542;13.362;2023-07-08T15:21:15;18.90;;;16.35;;
37267;SDS011;23154;52.542;13.362;2023-07-08T15:23:41;21.00;;;16.58;;
37267;SDS011;23154;52.542;13.362;2023-07-08T15:26:13;18.98;;;14.63;;
37267;SDS011;23154;52.542;13.362;2023-07-08T15:31:08;17.48;;;13.85;;
37267;SDS011;23154;52.542;13.362;2023-07-08T15:33:36;17.85;;;13.80;;
37267;SDS011;23154;52.542;13.362;2023-07-08T15:36:02;19.55;;;17.40;;
37267;SDS011;23154;52.542;13.362;2023-07-08T15:38:28;19.98;;;17.13;;
37267;SDS011;23154;52.542;13.362;2023-07-08T15:40:54;17.90;;;13.63;;